sensor_id;sensor_type;location;lat;lon;timestamp;P1;durP1;ratioP1;P2;durP2;ratioP2
5042;SDS011;2540;50.928;6.856;2023-03-14T00:01:11;2.20;;;0.93;;
5042;SDS011;2540;50.928;6.856;2023-03-14T00:03:41;5.20;;;1.30;;
5042;SDS011;2540;50.928;6.856;2023-03-14T00:06:07;3.17;;;1.07;;
5042;SDS011;2540;50.928;6.856;2023-03-14T00:08:33;4.80;;;1.40;;
5042;SDS011;2540;50.928;6.856;2023-03-14T00:11:03;9.73;;;1.80;;
5042;SDS011;2540;50.928;6.856;2023-03-14T00:13:29;4.73;;;1.37;;
5042;SDS011;2540;50.928;6.856;2023-03-14T00:15:55;3.80;;;1.47;;
5042;SDS011;2540;50.928;6.856;2023-03-14T00:18:26;3.43;;;0.93;;
5042;SDS011;2540;50.928;6.856;2023-03-14T00:20:52;14.40;;;1.90;;
5042;SDS011;2540;50.928;6.856;2023-03-14T00:23:18;3.50;;;1.90;;
5042;SDS011;2540;50.928;6.856;2023-03-14T00:25:43;12.07;;;1.60;;
5042;SDS011;2540;50.928;6.856;2023-03-14T00:28:08;11.43;;;2.50;;
5042;SDS011;2540;50.928;6.856;2023-03-14T00:30:33;11.63;;;1.70;;
5042;SDS011;2540;50.928;6.856;2023-03-14T00:32:59;4.80;;;1.70;;
5042;SDS011;2540;50.928;6.856;2023-03-14T00:35:24;8.27;;;1.63;;
5042;SDS011;2540;50.928;6.856;2023-03-14T00:37:49;7.63;;;1.23;;
5042;SDS011;2540;50.928;6.856;2023-03-14T00:40:15;12.43;;;2.03;;
5042;SDS011;2540;50.928;6.856;2023-03-14T00:42:40;8.20;;;1.20;;
5042;SDS011;2540;50.928;6.856;2023-03-14T00:45:06;5.83;;;1.70;;
5042;SDS011;2540;50.928;6.856;2023-03-14T00:47:33;7.03;;;1.80;;
5042;SDS011;2540;50.928;6.856;2023-03-14T00:49:59;3.00;;;1.10;;
5042;SDS011;2540;50.928;6.856;2023-03-14T00:52:24;4.67;;;1.30;;
5042;SDS011;2540;50.928;6.856;2023-03-14T00:54:49;8.90;;;2.30;;
5042;SDS011;2540;50.928;6.856;2023-03-14T00:57:14;8.40;;;2.13;;
5042;SDS011;2540;50.928;6.856;2023-03-14T00:59:40;8.07;;;1.63;;
5042;SDS011;2540;50.928;6.856;2023-03-14T01:02:05;4.13;;;1.73;;
5042;SDS011;2540;50.928;6.856;2023-03-14T01:04:31;6.30;;;1.73;;
5042;SDS011;2540;50.928;6.856;2023-03-14T01:06:56;4.23;;;1.00;;
5042;SDS011;2540;50.928;6.856;2023-03-14T01:09:22;3.70;;;0.93;;
5042;SDS011;2540;50.928;6.856;2023-03-14T01:11:48;3.60;;;1.30;;
5042;SDS011;2540;50.928;6.856;2023-03-14T01:14:14;3.70;;;1.27;;
5042;SDS011;2540;50.928;6.856;2023-03-14T01:16:39;5.17;;;0.97;;
5042;SDS011;2540;50.928;6.856;2023-03-14T01:19:04;6.07;;;1.53;;
5042;SDS011;2540;50.928;6.856;2023-03-14T01:21:31;10.40;;;1.43;;
5042;SDS011;2540;50.928;6.856;2023-03-14T01:23:58;5.93;;;1.27;;
5042;SDS011;2540;50.928;6.856;2023-03-14T01:26:25;6.17;;;1.50;;
5042;SDS011;2540;50.928;6.856;2023-03-14T01:28:53;4.03;;;1.20;;
5042;SDS011;2540;50.928;6.856;2023-03-14T01:31:19;3.60;;;1.23;;
5042;SDS011;2540;50.928;6.856;2023-03-14T01:33:45;2.50;;;1.37;;
5042;SDS011;2540;50.928;6.856;2023-03-14T01:36:11;11.13;;;1.37;;
5042;SDS011;2540;50.928;6.856;2023-03-14T01:38:37;6.03;;;1.63;;
5042;SDS011;2540;50.928;6.856;2023-03-14T01:41:03;5.50;;;1.50;;
5042;SDS011;2540;50.928;6.856;2023-03-14T01:43:29;9.03;;;1.00;;
5042;SDS011;2540;50.928;6.856;2023-03-14T01:51:27;9.57;;;1.00;;
5042;SDS011;2540;50.928;6.856;2023-03-14T01:53:56;11.70;;;0.90;;
5042;SDS011;2540;50.928;6.856;2023-03-14T01:56:26;2.07;;;0.70;;
5042;SDS011;2540;50.928;6.856;2023-03-14T01:58:51;2.37;;;0.60;;
5042;SDS011;2540;50.928;6.856;2023-03-14T02:01:18;5.00;;;1.10;;
5042;SDS011;2540;50.928;6.856;2023-03-14T02:03:47;3.80;;;0.97;;
5042;SDS011;2540;50.928;6.856;2023-03-14T02:06:19;2.90;;;0.67;;
5042;SDS011;2540;50.928;6.856;2023-03-14T02:08:48;2.57;;;0.77;;
5042;SDS011;2540;50.928;6.856;2023-03-14T02:11:14;3.80;;;0.90;;
5042;SDS011;2540;50.928;6.856;2023-03-14T02:13:40;2.80;;;0.67;;
5042;SDS011;2540;50.928;6.856;2023-03-14T02:16:05;3.20;;;0.70;;
5042;SDS011;2540;50.928;6.856;2023-03-14T02:18:31;4.53;;;0.80;;
5042;SDS011;2540;50.928;6.856;2023-03-14T02:21:14;4.40;;;0.80;;
5042;SDS011;2540;50.928;6.856;2023-03-14T02:26:38;2.90;;;0.70;;
5042;SDS011;2540;50.928;6.856;2023-03-14T02:29:06;3.50;;;0.77;;
5042;SDS011;2540;50.928;6.856;2023-03-14T02:31:32;1.23;;;0.60;;
5042;SDS011;2540;50.928;6.856;2023-03-14T02:33:57;0.80;;;0.70;;
5042;SDS011;2540;50.928;6.856;2023-03-14T02:36:23;9.53;;;1.10;;
5042;SDS011;2540;50.928;6.856;2023-03-14T02:39:01;1.10;;;0.50;;
5042;SDS011;2540;50.928;6.856;2023-03-14T02:41:32;1.70;;;0.77;;
5042;SDS011;2540;50.928;6.856;2023-03-14T02:43:57;1.20;;;0.70;;
5042;SDS011;2540;50.928;6.856;2023-03-14T02:46:22;5.33;;;0.80;;
5042;SDS011;2540;50.928;6.856;2023-03-14T02:48:52;7.03;;;0.97;;
5042;SDS011;2540;50.928;6.856;2023-03-14T02:51:20;3.00;;;0.90;;
5042;SDS011;2540;50.928;6.856;2023-03-14T02:53:46;10.13;;;2.10;;
5042;SDS011;2540;50.928;6.856;2023-03-14T02:56:11;10.93;;;2.20;;
5042;SDS011;2540;50.928;6.856;2023-03-14T02:58:37;6.10;;;2.13;;
5042;SDS011;2540;50.928;6.856;2023-03-14T03:01:02;8.93;;;2.50;;
5042;SDS011;2540;50.928;6.856;2023-03-14T03:03:28;11.93;;;2.13;;
5042;SDS011;2540;50.928;6.856;2023-03-14T03:05:54;4.47;;;2.23;;
5042;SDS011;2540;50.928;6.856;2023-03-14T03:08:21;6.53;;;2.07;;
5042;SDS011;2540;50.928;6.856;2023-03-14T03:10:47;4.87;;;1.60;;
5042;SDS011;2540;50.928;6.856;2023-03-14T03:13:12;8.20;;;1.80;;
5042;SDS011;2540;50.928;6.856;2023-03-14T03:15:38;10.13;;;2.00;;
5042;SDS011;2540;50.928;6.856;2023-03-14T03:18:03;6.97;;;2.27;;
5042;SDS011;2540;50.928;6.856;2023-03-14T03:20:29;6.03;;;2.17;;
5042;SDS011;2540;50.928;6.856;2023-03-14T03:22:54;11.93;;;1.93;;
5042;SDS011;2540;50.928;6.856;2023-03-14T03:25:19;9.77;;;2.20;;
5042;SDS011;2540;50.928;6.856;2023-03-14T03:27:45;7.80;;;2.00;;
5042;SDS011;2540;50.928;6.856;2023-03-14T03:30:10;11.13;;;1.70;;
5042;SDS011;2540;50.928;6.856;2023-03-14T03:32:36;10.23;;;1.70;;
5042;SDS011;2540;50.928;6.856;2023-03-14T03:35:02;7.10;;;1.70;;
5042;SDS011;2540;50.928;6.856;2023-03-14T03:37:29;6.13;;;1.43;;
5042;SDS011;2540;50.928;6.856;2023-03-14T03:39:55;10.60;;;1.47;;
5042;SDS011;2540;50.928;6.856;2023-03-14T03:42:21;7.10;;;1.60;;
5042;SDS011;2540;50.928;6.856;2023-03-14T03:44:46;5.13;;;1.10;;
5042;SDS011;2540;50.928;6.856;2023-03-14T03:47:12;11.33;;;1.43;;
5042;SDS011;2540;50.928;6.856;2023-03-14T03:49:37;4.53;;;1.20;;
5042;SDS011;2540;50.928;6.856;2023-03-14T03:52:03;4.37;;;1.47;;
5042;SDS011;2540;50.928;6.856;2023-03-14T03:54:28;9.23;;;1.40;;
5042;SDS011;2540;50.928;6.856;2023-03-14T03:56:56;8.53;;;1.40;;
5042;SDS011;2540;50.928;6.856;2023-03-14T03:59:22;6.03;;;1.57;;
5042;SDS011;2540;50.928;6.856;2023-03-14T04:01:47;5.70;;;1.60;;
5042;SDS011;2540;50.928;6.856;2023-03-14T04:04:13;7.03;;;1.80;;
5042;SDS011;2540;50.928;6.856;2023-03-14T04:06:38;8.80;;;1.30;;
5042;SDS011;2540;50.928;6.856;2023-03-14T04:09:04;6.33;;;1.40;;
5042;SDS011;2540;50.928;6.856;2023-03-14T04:11:29;4.10;;;1.33;;
5042;SDS011;2540;50.928;6.856;2023-03-14T04:13:55;3.70;;;1.27;;
5042;SDS011;2540;50.928;6.856;2023-03-14T04:16:21;4.83;;;1.20;;
5042;SDS011;2540;50.928;6.856;2023-03-14T04:18:47;5.63;;;1.87;;
5042;SDS011;2540;50.928;6.856;2023-03-14T04:21:13;3.93;;;1.60;;
5042;SDS011;2540;50.928;6.856;2023-03-14T04:23:38;2.93;;;1.33;;
5042;SDS011;2540;50.928;6.856;2023-03-14T04:26:03;7.80;;;1.50;;
5042;SDS011;2540;50.928;6.856;2023-03-14T04:28:29;15.73;;;1.17;;
5042;SDS011;2540;50.928;6.856;2023-03-14T04:30:54;4.10;;;1.00;;
5042;SDS011;2540;50.928;6.856;2023-03-14T04:33:19;5.83;;;1.47;;
5042;SDS011;2540;50.928;6.856;2023-03-14T04:35:45;4.20;;;1.40;;
5042;SDS011;2540;50.928;6.856;2023-03-14T04:38:11;6.47;;;1.07;;
5042;SDS011;2540;50.928;6.856;2023-03-14T04:40:37;7.80;;;0.90;;
5042;SDS011;2540;50.928;6.856;2023-03-14T04:43:04;2.50;;;0.87;;
5042;SDS011;2540;50.928;6.856;2023-03-14T04:45:29;8.57;;;1.50;;
5042;SDS011;2540;50.928;6.856;2023-03-14T04:47:54;2.87;;;1.00;;
5042;SDS011;2540;50.928;6.856;2023-03-14T04:50:20;1.70;;;0.70;;
5042;SDS011;2540;50.928;6.856;2023-03-14T04:52:45;2.93;;;0.93;;
5042;SDS011;2540;50.928;6.856;2023-03-14T04:55:10;3.50;;;1.27;;
5042;SDS011;2540;50.928;6.856;2023-03-14T04:57:36;2.60;;;0.90;;
5042;SDS011;2540;50.928;6.856;2023-03-14T05:00:01;4.30;;;2.13;;
5042;SDS011;2540;50.928;6.856;2023-03-14T05:02:31;2.07;;;1.07;;
5042;SDS011;2540;50.928;6.856;2023-03-14T05:04:56;4.13;;;1.40;;
5042;SDS011;2540;50.928;6.856;2023-03-14T05:07:22;6.17;;;1.93;;
5042;SDS011;2540;50.928;6.856;2023-03-14T05:09:47;3.67;;;1.17;;
5042;SDS011;2540;50.928;6.856;2023-03-14T05:12:12;7.07;;;1.97;;
5042;SDS011;2540;50.928;6.856;2023-03-14T05:14:38;2.83;;;1.17;;
5042;SDS011;2540;50.928;6.856;2023-03-14T05:17:04;5.37;;;1.20;;
5042;SDS011;2540;50.928;6.856;2023-03-14T05:19:29;2.70;;;1.10;;
5042;SDS011;2540;50.928;6.856;2023-03-14T05:21:55;2.33;;;0.93;;
5042;SDS011;2540;50.928;6.856;2023-03-14T05:24:20;1.27;;;0.70;;
5042;SDS011;2540;50.928;6.856;2023-03-14T05:26:45;5.03;;;0.90;;
5042;SDS011;2540;50.928;6.856;2023-03-14T05:29:11;1.70;;;0.70;;
5042;SDS011;2540;50.928;6.856;2023-03-14T05:31:36;2.77;;;0.60;;
5042;SDS011;2540;50.928;6.856;2023-03-14T05:34:01;5.50;;;0.97;;
5042;SDS011;2540;50.928;6.856;2023-03-14T05:36:27;0.63;;;0.60;;
5042;SDS011;2540;50.928;6.856;2023-03-14T05:38:52;0.50;;;0.50;;
5042;SDS011;2540;50.928;6.856;2023-03-14T05:41:17;2.20;;;0.60;;
5042;SDS011;2540;50.928;6.856;2023-03-14T05:43:43;2.37;;;0.70;;
5042;SDS011;2540;50.928;6.856;2023-03-14T05:46:08;1.13;;;0.50;;
5042;SDS011;2540;50.928;6.856;2023-03-14T05:48:33;0.40;;;0.40;;
5042;SDS011;2540;50.928;6.856;2023-03-14T05:50:59;2.10;;;0.50;;
5042;SDS011;2540;50.928;6.856;2023-03-14T05:53:24;0.80;;;0.50;;
5042;SDS011;2540;50.928;6.856;2023-03-14T05:55:53;0.50;;;0.50;;
5042;SDS011;2540;50.928;6.856;2023-03-14T05:58:19;1.50;;;0.57;;
5042;SDS011;2540;50.928;6.856;2023-03-14T06:00:44;1.30;;;0.57;;
5042;SDS011;2540;50.928;6.856;2023-03-14T06:03:09;1.33;;;0.50;;
5042;SDS011;2540;50.928;6.856;2023-03-14T06:05:35;3.80;;;0.50;;
5042;SDS011;2540;50.928;6.856;2023-03-14T06:08:00;0.60;;;0.60;;
5042;SDS011;2540;50.928;6.856;2023-03-14T06:10:25;3.83;;;0.57;;
5042;SDS011;2540;50.928;6.856;2023-03-14T06:12:51;1.17;;;0.50;;
5042;SDS011;2540;50.928;6.856;2023-03-14T06:15:25;0.50;;;0.50;;
5042;SDS011;2540;50.928;6.856;2023-03-14T06:17:50;0.40;;;0.40;;
5042;SDS011;2540;50.928;6.856;2023-03-14T06:20:16;0.90;;;0.50;;
5042;SDS011;2540;50.928;6.856;2023-03-14T06:22:41;0.83;;;0.53;;
5042;SDS011;2540;50.928;6.856;2023-03-14T06:25:07;0.97;;;0.60;;
5042;SDS011;2540;50.928;6.856;2023-03-14T06:27:34;0.40;;;0.40;;
5042;SDS011;2540;50.928;6.856;2023-03-14T06:29:59;0.60;;;0.60;;
5042;SDS011;2540;50.928;6.856;2023-03-14T06:32:24;2.30;;;0.60;;
5042;SDS011;2540;50.928;6.856;2023-03-14T06:34:50;0.70;;;0.40;;
5042;SDS011;2540;50.928;6.856;2023-03-14T06:37:15;0.50;;;0.50;;
5042;SDS011;2540;50.928;6.856;2023-03-14T06:39:41;0.67;;;0.50;;
5042;SDS011;2540;50.928;6.856;2023-03-14T06:42:06;0.53;;;0.53;;
5042;SDS011;2540;50.928;6.856;2023-03-14T06:44:31;1.10;;;0.60;;
5042;SDS011;2540;50.928;6.856;2023-03-14T06:46:57;0.43;;;0.43;;
5042;SDS011;2540;50.928;6.856;2023-03-14T06:49:22;3.00;;;0.80;;
5042;SDS011;2540;50.928;6.856;2023-03-14T06:51:47;0.53;;;0.53;;
5042;SDS011;2540;50.928;6.856;2023-03-14T06:54:13;0.67;;;0.50;;
5042;SDS011;2540;50.928;6.856;2023-03-14T06:56:38;0.40;;;0.40;;
5042;SDS011;2540;50.928;6.856;2023-03-14T06:59:04;0.70;;;0.50;;
5042;SDS011;2540;50.928;6.856;2023-03-14T07:01:29;0.60;;;0.50;;
5042;SDS011;2540;50.928;6.856;2023-03-14T07:03:55;0.73;;;0.43;;
5042;SDS011;2540;50.928;6.856;2023-03-14T07:06:21;1.30;;;0.50;;
5042;SDS011;2540;50.928;6.856;2023-03-14T07:08:47;0.40;;;0.40;;
5042;SDS011;2540;50.928;6.856;2023-03-14T07:11:13;0.47;;;0.47;;
5042;SDS011;2540;50.928;6.856;2023-03-14T07:13:39;0.40;;;0.40;;
5042;SDS011;2540;50.928;6.856;2023-03-14T07:16:04;0.40;;;0.40;;
5042;SDS011;2540;50.928;6.856;2023-03-14T07:18:30;0.40;;;0.40;;
5042;SDS011;2540;50.928;6.856;2023-03-14T07:20:55;0.90;;;0.40;;
5042;SDS011;2540;50.928;6.856;2023-03-14T07:23:21;1.23;;;0.50;;
5042;SDS011;2540;50.928;6.856;2023-03-14T07:25:46;0.40;;;0.40;;
5042;SDS011;2540;50.928;6.856;2023-03-14T07:28:11;0.80;;;0.50;;
5042;SDS011;2540;50.928;6.856;2023-03-14T07:30:37;0.50;;;0.40;;
5042;SDS011;2540;50.928;6.856;2023-03-14T07:33:02;0.40;;;0.40;;
5042;SDS011;2540;50.928;6.856;2023-03-14T07:35:27;0.40;;;0.40;;
5042;SDS011;2540;50.928;6.856;2023-03-14T07:37:53;0.40;;;0.40;;
5042;SDS011;2540;50.928;6.856;2023-03-14T07:40:19;0.40;;;0.40;;
5042;SDS011;2540;50.928;6.856;2023-03-14T07:42:44;0.70;;;0.50;;
5042;SDS011;2540;50.928;6.856;2023-03-14T07:45:10;0.40;;;0.40;;
5042;SDS011;2540;50.928;6.856;2023-03-14T07:47:35;0.50;;;0.50;;
5042;SDS011;2540;50.928;6.856;2023-03-14T07:50:01;0.53;;;0.50;;
5042;SDS011;2540;50.928;6.856;2023-03-14T07:52:27;0.40;;;0.40;;
5042;SDS011;2540;50.928;6.856;2023-03-14T07:54:53;1.90;;;0.40;;
5042;SDS011;2540;50.928;6.856;2023-03-14T07:57:18;0.40;;;0.40;;
5042;SDS011;2540;50.928;6.856;2023-03-14T07:59:43;0.40;;;0.40;;
5042;SDS011;2540;50.928;6.856;2023-03-14T08:02:12;2.50;;;0.60;;
5042;SDS011;2540;50.928;6.856;2023-03-14T08:04:38;0.40;;;0.40;;
5042;SDS011;2540;50.928;6.856;2023-03-14T08:07:04;0.40;;;0.40;;
5042;SDS011;2540;50.928;6.856;2023-03-14T08:09:30;0.70;;;0.70;;
5042;SDS011;2540;50.928;6.856;2023-03-14T08:11:55;0.40;;;0.40;;
5042;SDS011;2540;50.928;6.856;2023-03-14T08:14:21;0.80;;;0.50;;
5042;SDS011;2540;50.928;6.856;2023-03-14T08:16:48;0.40;;;0.40;;
5042;SDS011;2540;50.928;6.856;2023-03-14T08:19:14;0.50;;;0.50;;
5042;SDS011;2540;50.928;6.856;2023-03-14T08:21:42;0.97;;;0.57;;
5042;SDS011;2540;50.928;6.856;2023-03-14T08:24:08;0.50;;;0.50;;
5042;SDS011;2540;50.928;6.856;2023-03-14T08:26:33;0.97;;;0.70;;
5042;SDS011;2540;50.928;6.856;2023-03-14T08:28:59;0.87;;;0.60;;
5042;SDS011;2540;50.928;6.856;2023-03-14T08:31:24;0.50;;;0.50;;
5042;SDS011;2540;50.928;6.856;2023-03-14T08:33:49;0.60;;;0.60;;
5042;SDS011;2540;50.928;6.856;2023-03-14T08:36:17;2.67;;;0.50;;
5042;SDS011;2540;50.928;6.856;2023-03-14T08:38:43;0.60;;;0.47;;
5042;SDS011;2540;50.928;6.856;2023-03-14T08:41:08;5.13;;;0.50;;
5042;SDS011;2540;50.928;6.856;2023-03-14T08:43:34;0.40;;;0.40;;
5042;SDS011;2540;50.928;6.856;2023-03-14T08:46:00;2.00;;;0.50;;
5042;SDS011;2540;50.928;6.856;2023-03-14T08:48:26;1.07;;;0.50;;
5042;SDS011;2540;50.928;6.856;2023-03-14T08:50:51;1.00;;;0.57;;
5042;SDS011;2540;50.928;6.856;2023-03-14T08:53:17;0.80;;;0.40;;
5042;SDS011;2540;50.928;6.856;2023-03-14T08:55:43;0.50;;;0.50;;
5042;SDS011;2540;50.928;6.856;2023-03-14T08:58:08;2.00;;;0.80;;
5042;SDS011;2540;50.928;6.856;2023-03-14T09:00:34;1.10;;;0.80;;
5042;SDS011;2540;50.928;6.856;2023-03-14T09:02:59;1.63;;;0.70;;
5042;SDS011;2540;50.928;6.856;2023-03-14T09:05:24;1.73;;;0.57;;
5042;SDS011;2540;50.928;6.856;2023-03-14T09:07:50;5.23;;;0.97;;
5042;SDS011;2540;50.928;6.856;2023-03-14T09:10:15;1.30;;;0.67;;
5042;SDS011;2540;50.928;6.856;2023-03-14T09:12:40;0.80;;;0.60;;
5042;SDS011;2540;50.928;6.856;2023-03-14T09:15:06;1.00;;;0.67;;
5042;SDS011;2540;50.928;6.856;2023-03-14T09:17:32;1.10;;;0.90;;
5042;SDS011;2540;50.928;6.856;2023-03-14T09:19:57;4.83;;;0.90;;
5042;SDS011;2540;50.928;6.856;2023-03-14T09:22:23;2.90;;;0.90;;
5042;SDS011;2540;50.928;6.856;2023-03-14T09:24:48;1.90;;;0.60;;
5042;SDS011;2540;50.928;6.856;2023-03-14T09:27:14;2.50;;;0.60;;
5042;SDS011;2540;50.928;6.856;2023-03-14T09:29:39;1.13;;;0.63;;
5042;SDS011;2540;50.928;6.856;2023-03-14T09:32:04;0.70;;;0.60;;
5042;SDS011;2540;50.928;6.856;2023-03-14T09:34:30;0.60;;;0.60;;
5042;SDS011;2540;50.928;6.856;2023-03-14T09:36:55;0.60;;;0.60;;
5042;SDS011;2540;50.928;6.856;2023-03-14T09:39:21;1.23;;;0.50;;
5042;SDS011;2540;50.928;6.856;2023-03-14T09:41:48;2.20;;;0.80;;
5042;SDS011;2540;50.928;6.856;2023-03-14T09:44:16;0.70;;;0.70;;
5042;SDS011;2540;50.928;6.856;2023-03-14T09:46:48;0.70;;;0.70;;
5042;SDS011;2540;50.928;6.856;2023-03-14T09:49:20;0.50;;;0.50;;
5042;SDS011;2540;50.928;6.856;2023-03-14T09:51:50;3.27;;;1.30;;
5042;SDS011;2540;50.928;6.856;2023-03-14T09:54:31;0.63;;;0.60;;
5042;SDS011;2540;50.928;6.856;2023-03-14T09:57:02;0.90;;;0.90;;
5042;SDS011;2540;50.928;6.856;2023-03-14T09:59:30;0.70;;;0.70;;
5042;SDS011;2540;50.928;6.856;2023-03-14T10:01:57;1.20;;;0.83;;
5042;SDS011;2540;50.928;6.856;2023-03-14T10:04:25;1.93;;;0.83;;
5042;SDS011;2540;50.928;6.856;2023-03-14T10:06:50;0.80;;;0.80;;
5042;SDS011;2540;50.928;6.856;2023-03-14T10:09:20;2.00;;;1.20;;
5042;SDS011;2540;50.928;6.856;2023-03-14T10:11:57;1.07;;;0.87;;
5042;SDS011;2540;50.928;6.856;2023-03-14T10:14:32;2.33;;;1.57;;
5042;SDS011;2540;50.928;6.856;2023-03-14T10:17:06;2.07;;;1.60;;
5042;SDS011;2540;50.928;6.856;2023-03-14T10:19:34;3.47;;;1.70;;
5042;SDS011;2540;50.928;6.856;2023-03-14T10:22:01;1.30;;;1.20;;
5042;SDS011;2540;50.928;6.856;2023-03-14T10:24:29;2.43;;;1.00;;
5042;SDS011;2540;50.928;6.856;2023-03-14T10:27:05;1.53;;;1.00;;
5042;SDS011;2540;50.928;6.856;2023-03-14T10:29:54;1.83;;;0.80;;
5042;SDS011;2540;50.928;6.856;2023-03-14T10:32:34;6.03;;;1.20;;
5042;SDS011;2540;50.928;6.856;2023-03-14T10:37:47;1.07;;;0.97;;
5042;SDS011;2540;50.928;6.856;2023-03-14T10:40:25;2.00;;;1.47;;
5042;SDS011;2540;50.928;6.856;2023-03-14T10:43:04;1.20;;;1.10;;
5042;SDS011;2540;50.928;6.856;2023-03-14T10:45:32;1.17;;;1.17;;
5042;SDS011;2540;50.928;6.856;2023-03-14T10:48:13;2.00;;;1.30;;
5042;SDS011;2540;50.928;6.856;2023-03-14T10:53:20;2.07;;;1.57;;
5042;SDS011;2540;50.928;6.856;2023-03-14T10:55:45;2.60;;;1.77;;
5042;SDS011;2540;50.928;6.856;2023-03-14T10:58:24;1.80;;;1.70;;
5042;SDS011;2540;50.928;6.856;2023-03-14T11:00:53;1.27;;;1.03;;
5042;SDS011;2540;50.928;6.856;2023-03-14T11:03:25;1.40;;;1.30;;
5042;SDS011;2540;50.928;6.856;2023-03-14T11:06:10;1.63;;;1.53;;
5042;SDS011;2540;50.928;6.856;2023-03-14T11:08:47;1.73;;;1.30;;
5042;SDS011;2540;50.928;6.856;2023-03-14T11:11:28;1.90;;;1.60;;
5042;SDS011;2540;50.928;6.856;2023-03-14T11:17:02;4.90;;;1.30;;
5042;SDS011;2540;50.928;6.856;2023-03-14T11:19:55;1.00;;;1.00;;
5042;SDS011;2540;50.928;6.856;2023-03-14T11:28:18;2.70;;;1.33;;
5042;SDS011;2540;50.928;6.856;2023-03-14T11:30:53;5.17;;;1.80;;
5042;SDS011;2540;50.928;6.856;2023-03-14T11:33:24;9.53;;;1.67;;
5042;SDS011;2540;50.928;6.856;2023-03-14T11:35:55;6.63;;;2.50;;
5042;SDS011;2540;50.928;6.856;2023-03-14T11:38:38;1.70;;;1.30;;
5042;SDS011;2540;50.928;6.856;2023-03-14T11:41:09;2.50;;;1.40;;
5042;SDS011;2540;50.928;6.856;2023-03-14T11:43:41;0.90;;;0.90;;
5042;SDS011;2540;50.928;6.856;2023-03-14T11:46:21;0.80;;;0.50;;
5042;SDS011;2540;50.928;6.856;2023-03-14T11:51:24;1.27;;;0.40;;
5042;SDS011;2540;50.928;6.856;2023-03-14T11:53:58;0.50;;;0.50;;
5042;SDS011;2540;50.928;6.856;2023-03-14T11:59:05;0.53;;;0.53;;
5042;SDS011;2540;50.928;6.856;2023-03-14T12:01:36;0.90;;;0.60;;
5042;SDS011;2540;50.928;6.856;2023-03-14T12:07:03;3.50;;;0.87;;
5042;SDS011;2540;50.928;6.856;2023-03-14T12:09:33;2.63;;;1.10;;
5042;SDS011;2540;50.928;6.856;2023-03-14T12:12:00;5.43;;;1.80;;
5042;SDS011;2540;50.928;6.856;2023-03-14T12:14:28;3.67;;;1.07;;
5042;SDS011;2540;50.928;6.856;2023-03-14T12:16:57;2.30;;;1.10;;
5042;SDS011;2540;50.928;6.856;2023-03-14T12:19:31;8.63;;;1.37;;
5042;SDS011;2540;50.928;6.856;2023-03-14T12:21:59;1.17;;;0.90;;
5042;SDS011;2540;50.928;6.856;2023-03-14T12:25:27;3.33;;;1.47;;
5042;SDS011;2540;50.928;6.856;2023-03-14T12:27:48;2.87;;;1.40;;
5042;SDS011;2540;50.928;6.856;2023-03-14T12:30:16;4.23;;;0.80;;
5042;SDS011;2540;50.928;6.856;2023-03-14T12:33:10;16.77;;;1.00;;
5042;SDS011;2540;50.928;6.856;2023-03-14T12:35:49;4.40;;;0.90;;
5042;SDS011;2540;50.928;6.856;2023-03-14T12:43:45;2.00;;;0.77;;
5042;SDS011;2540;50.928;6.856;2023-03-14T12:46:18;2.20;;;0.80;;
5042;SDS011;2540;50.928;6.856;2023-03-14T12:49:05;3.67;;;1.10;;
5042;SDS011;2540;50.928;6.856;2023-03-14T12:51:38;0.70;;;0.70;;
5042;SDS011;2540;50.928;6.856;2023-03-14T13:01:54;3.40;;;0.80;;
5042;SDS011;2540;50.928;6.856;2023-03-14T13:04:26;3.23;;;0.83;;
5042;SDS011;2540;50.928;6.856;2023-03-14T13:06:54;2.53;;;0.80;;
5042;SDS011;2540;50.928;6.856;2023-03-14T13:12:14;1.10;;;0.60;;
5042;SDS011;2540;50.928;6.856;2023-03-14T13:14:48;1.73;;;0.83;;
5042;SDS011;2540;50.928;6.856;2023-03-14T13:17:15;4.93;;;1.20;;
5042;SDS011;2540;50.928;6.856;2023-03-14T13:19:57;1.73;;;0.70;;
5042;SDS011;2540;50.928;6.856;2023-03-14T13:22:28;8.50;;;2.30;;
5042;SDS011;2540;50.928;6.856;2023-03-14T13:25:03;9.10;;;1.47;;
5042;SDS011;2540;50.928;6.856;2023-03-14T13:27:33;2.47;;;0.90;;
5042;SDS011;2540;50.928;6.856;2023-03-14T13:30:04;3.80;;;0.70;;
5042;SDS011;2540;50.928;6.856;2023-03-14T13:32:42;4.13;;;0.90;;
5042;SDS011;2540;50.928;6.856;2023-03-14T13:37:45;5.27;;;1.20;;
5042;SDS011;2540;50.928;6.856;2023-03-14T13:40:21;1.17;;;0.70;;
5042;SDS011;2540;50.928;6.856;2023-03-14T13:42:58;3.07;;;0.60;;
5042;SDS011;2540;50.928;6.856;2023-03-14T13:45:28;5.03;;;1.07;;
5042;SDS011;2540;50.928;6.856;2023-03-14T13:47:53;5.03;;;0.93;;
5042;SDS011;2540;50.928;6.856;2023-03-14T13:50:19;12.03;;;1.40;;
5042;SDS011;2540;50.928;6.856;2023-03-14T13:52:44;5.20;;;1.10;;
5042;SDS011;2540;50.928;6.856;2023-03-14T13:55:17;10.70;;;2.07;;
5042;SDS011;2540;50.928;6.856;2023-03-14T13:57:47;11.33;;;1.50;;
5042;SDS011;2540;50.928;6.856;2023-03-14T14:00:19;12.20;;;2.50;;
5042;SDS011;2540;50.928;6.856;2023-03-14T14:02:48;7.37;;;1.43;;
5042;SDS011;2540;50.928;6.856;2023-03-14T14:05:14;14.83;;;1.93;;
5042;SDS011;2540;50.928;6.856;2023-03-14T14:07:40;12.00;;;1.80;;
5042;SDS011;2540;50.928;6.856;2023-03-14T14:10:11;14.37;;;2.47;;
5042;SDS011;2540;50.928;6.856;2023-03-14T14:12:39;12.90;;;1.70;;
5042;SDS011;2540;50.928;6.856;2023-03-14T14:20:36;15.30;;;1.73;;
5042;SDS011;2540;50.928;6.856;2023-03-14T14:23:04;13.93;;;2.33;;
5042;SDS011;2540;50.928;6.856;2023-03-14T14:25:31;10.17;;;1.70;;
5042;SDS011;2540;50.928;6.856;2023-03-14T14:27:57;7.93;;;1.70;;
5042;SDS011;2540;50.928;6.856;2023-03-14T14:30:31;12.03;;;2.00;;
5042;SDS011;2540;50.928;6.856;2023-03-14T14:33:10;11.90;;;1.50;;
5042;SDS011;2540;50.928;6.856;2023-03-14T14:35:38;12.77;;;2.90;;
5042;SDS011;2540;50.928;6.856;2023-03-14T14:38:08;13.97;;;1.77;;
5042;SDS011;2540;50.928;6.856;2023-03-14T14:40:40;10.60;;;1.47;;
5042;SDS011;2540;50.928;6.856;2023-03-14T14:43:15;9.33;;;1.60;;
5042;SDS011;2540;50.928;6.856;2023-03-14T14:45:43;14.87;;;2.40;;
5042;SDS011;2540;50.928;6.856;2023-03-14T14:48:10;13.63;;;2.50;;
5042;SDS011;2540;50.928;6.856;2023-03-14T14:50:38;3.53;;;1.07;;
5042;SDS011;2540;50.928;6.856;2023-03-14T14:53:19;14.33;;;2.27;;
5042;SDS011;2540;50.928;6.856;2023-03-14T14:55:49;16.87;;;1.80;;
5042;SDS011;2540;50.928;6.856;2023-03-14T14:58:27;15.13;;;2.43;;
5042;SDS011;2540;50.928;6.856;2023-03-14T15:00:58;13.90;;;1.90;;
5042;SDS011;2540;50.928;6.856;2023-03-14T15:03:28;10.30;;;1.90;;
5042;SDS011;2540;50.928;6.856;2023-03-14T15:05:55;24.63;;;2.00;;
5042;SDS011;2540;50.928;6.856;2023-03-14T15:08:21;12.07;;;2.77;;
5042;SDS011;2540;50.928;6.856;2023-03-14T15:10:46;6.57;;;1.40;;
5042;SDS011;2540;50.928;6.856;2023-03-14T15:13:12;10.73;;;2.20;;
5042;SDS011;2540;50.928;6.856;2023-03-14T15:15:37;13.67;;;2.93;;
5042;SDS011;2540;50.928;6.856;2023-03-14T15:18:07;18.80;;;2.50;;
5042;SDS011;2540;50.928;6.856;2023-03-14T15:20:37;15.90;;;2.27;;
5042;SDS011;2540;50.928;6.856;2023-03-14T15:23:04;12.27;;;1.57;;
5042;SDS011;2540;50.928;6.856;2023-03-14T15:25:33;19.67;;;2.07;;
5042;SDS011;2540;50.928;6.856;2023-03-14T15:27:58;10.90;;;2.60;;
5042;SDS011;2540;50.928;6.856;2023-03-14T15:30:23;14.13;;;2.13;;
5042;SDS011;2540;50.928;6.856;2023-03-14T15:32:49;24.87;;;2.70;;
5042;SDS011;2540;50.928;6.856;2023-03-14T15:35:15;20.17;;;2.00;;
5042;SDS011;2540;50.928;6.856;2023-03-14T15:37:40;9.83;;;1.90;;
5042;SDS011;2540;50.928;6.856;2023-03-14T15:40:05;11.57;;;2.30;;
5042;SDS011;2540;50.928;6.856;2023-03-14T15:42:38;15.57;;;2.67;;
5042;SDS011;2540;50.928;6.856;2023-03-14T15:45:04;12.87;;;2.40;;
5042;SDS011;2540;50.928;6.856;2023-03-14T15:47:29;14.70;;;2.10;;
5042;SDS011;2540;50.928;6.856;2023-03-14T15:49:57;12.60;;;2.40;;
5042;SDS011;2540;50.928;6.856;2023-03-14T15:52:22;15.60;;;2.43;;
5042;SDS011;2540;50.928;6.856;2023-03-14T15:54:47;18.43;;;3.03;;
5042;SDS011;2540;50.928;6.856;2023-03-14T15:57:13;14.70;;;2.10;;
5042;SDS011;2540;50.928;6.856;2023-03-14T15:59:38;9.93;;;1.93;;
5042;SDS011;2540;50.928;6.856;2023-03-14T16:02:03;18.97;;;2.30;;
5042;SDS011;2540;50.928;6.856;2023-03-14T16:04:29;15.73;;;2.10;;
5042;SDS011;2540;50.928;6.856;2023-03-14T16:06:54;14.57;;;2.03;;
5042;SDS011;2540;50.928;6.856;2023-03-14T16:09:19;11.43;;;1.97;;
5042;SDS011;2540;50.928;6.856;2023-03-14T16:11:45;10.63;;;1.90;;